Wetterdaten: Dezember 2015
Datum Temp Feuchte Luftdruck Regen Wind Richtung Sonnenschein UV Solar Windben
01.12.2015 7,0 C 93 % 1020,6 hPa 6,0 l/m 5,5 km/h W 0,58 h 0,6 UV-I 75 W/m 15,6 km/h
02.12.2015 8,4 C 87 % 1025,9 hPa 0,0 l/m 5,2 km/h S-SW 0,00 h 0,0 UV-I 31 W/m 15,8 km/h
03.12.2015 6,2 C 86 % 1026,9 hPa 0,0 l/m 4,4 km/h S-SO 2,17 h 0,6 UV-I 96 W/m 8,7 km/h
04.12.2015 6,5 C 90 % 1024,9 hPa 4,8 l/m 10,6 km/h S 1,50 h 0,5 UV-I 60 W/m 22,2 km/h
05.12.2015 4,6 C 86 % 1026,0 hPa 0,0 l/m 9,6 km/h S 0,33 h 0,5 UV-I 71 W/m 15,7 km/h
06.12.2015 7,1 C 84 % 1022,3 hPa 5,0 l/m 15,1 km/h S 0,00 h 0,5 UV-I 46 W/m 25,5 km/h
07.12.2015 8,4 C 96 % 1030,1 hPa 4,4 l/m 1,9 km/h S 0,00 h 0,5 UV-I 44 W/m 4,7 km/h
08.12.2015 7,1 C 92 % 1029,0 hPa 0,4 l/m 5,6 km/h S 4,42 h 0,6 UV-I 114 W/m 9,4 km/h
09.12.2015 5,9 C 92 % 1033,0 hPa 4,8 l/m 3,9 km/h W-NW 1,42 h 0,5 UV-I 66 W/m 14,5 km/h
10.12.2015 1,4 C 93 % 1031,7 hPa 0,2 l/m 11,8 km/h S 3,67 h 0,6 UV-I 103 W/m 16,9 km/h
11.12.2015 4,1 C 94 % 1021,9 hPa 9,8 l/m 12,4 km/h S 0,00 h 0,0 UV-I 16 W/m 21,7 km/h
12.12.2015 5,2 C 92 % 1019,8 hPa 1,4 l/m 7,6 km/h S-SW 1,67 h 0,6 UV-I 83 W/m 20,1 km/h
13.12.2015 5,1 C 91 % 1018,0 hPa 2,4 l/m 6,4 km/h SW 0,00 h 0,5 UV-I 46 W/m 14,9 km/h
14.12.2015 4,1 C 95 % 1021,4 hPa 0,2 l/m 2,2 km/h S-SO 0,42 h 0,0 UV-I 43 W/m 5,2 km/h
15.12.2015 4,9 C 95 % 1022,9 hPa 0,0 l/m 2,0 km/h S 2,67 h 0,6 UV-I 99 W/m 4,1 km/h
16.12.2015 7,1 C 97 % 1023,3 hPa 6,6 l/m 7,7 km/h S-SO 0,00 h 0,0 UV-I 22 W/m 14,1 km/h
17.12.2015 10,7 C 94 % 1021,6 hPa 3,0 l/m 2,8 km/h S 1,58 h 0,5 UV-I 72 W/m 10,8 km/h
18.12.2015 10,2 C 90 % 1020,6 hPa 0,2 l/m 2,5 km/h S-SW 0,08 h 0,5 UV-I 55 W/m 11,1 km/h
19.12.2015 9,7 C 90 % 1020,8 hPa 0,0 l/m 4,3 km/h S 3,25 h 0,6 UV-I 101 W/m 8,4 km/h
20.12.2015 9,3 C 91 % 1017,3 hPa 0,0 l/m 9,8 km/h S 0,50 h 0,5 UV-I 60 W/m 14,9 km/h
21.12.2015 9,2 C 86 % 1018,5 hPa 3,0 l/m 14,4 km/h S-SW 1,92 h 0,5 UV-I 84 W/m 25,7 km/h
22.12.2015 10,9 C 89 % 1020,1 hPa 1,2 l/m 16,0 km/h S 0,00 h 0,0 UV-I 25 W/m 28,9 km/h
23.12.2015 9,4 C 84 % 1021,9 hPa 1,0 l/m 11,4 km/h S 0,92 h 0,5 UV-I 63 W/m 23,2 km/h
24.12.2015 7,9 C 90 % 1021,3 hPa 0,0 l/m 15,9 km/h S 2,00 h 0,6 UV-I 75 W/m 24,8 km/h
25.12.2015 7,8 C 91 % 1024,7 hPa 4,2 l/m 4,9 km/h S-SW 0,17 h 0,5 UV-I 46 W/m 13,3 km/h
26.12.2015 12,0 C 80 % 1023,5 hPa 0,0 l/m 8,5 km/h S-SW 3,75 h 0,6 UV-I 119 W/m 23,2 km/h
27.12.2015 9,2 C 85 % 1024,8 hPa 0,0 l/m 6,9 km/h S 0,58 h 0,5 UV-I 82 W/m 15,1 km/h
28.12.2015 8,9 C 85 % 1027,8 hPa 0,0 l/m 9,8 km/h SO 3,17 h 0,6 UV-I 103 W/m 16,5 km/h
29.12.2015 5,7 C 89 % 1026,0 hPa 0,0 l/m 11,5 km/h S-SO 3,67 h 0,5 UV-I 106 W/m 17,7 km/h
30.12.2015 3,9 C 92 % 1026,5 hPa 0,0 l/m 15,2 km/h S-SO 0,50 h 0,5 UV-I 65 W/m 23,5 km/h
31.12.2015 3,0 C 93 % 1020,4 hPa 3,0 l/m 13,9 km/h S-SO 1,08 h 0,0 UV-I 50 W/m 20,4 km/h
Min-Datum 10.12.15 26.12.15 01.12.15 19 Tage 01.12.15 - - - - 01.12.15
Min-Zeit 07:10 13:15 00:00 - 05:30 - - - - 05:30
Minimum -0,9 C 66 % 1010,1 hPa - 0,0 km/h - - - - 0,0 km/h
Max-Datum 26.12.15 07.12.15 09.12.15 11.12.15 31.12.15 - 08.12.15 01.12.15 04.12.15 13.12.15
Max-Zeit 13:35 03:50 21:00 22:45 01:20 - 14:55 11:25 13:10 04:35
Maximum 14,9 C 100 % 1036,7 hPa 9,8 l/m 36,3 km/h
S-SO
- 4,33 h 0,7 UV-I 315 W/m 54,7 km/h
N-NW
Durchschnitt 7,1 C 90 % 1023,7 hPa #61,6 l/m 8,4 km/h S #42:00 h 0,5 UV-I 68 W/m 16,3 km/h

Durchschnitt Minimum Temp.4,0 C
Durchschnitt Maximum Temp.10,1 C